Time;durP1;ratioP1;P1;durP2;ratioP2;P2;SDS_P1;SDS_P2;PMS_P1;PMS_P2;Temp;Humidity;BMP_temperature;BMP_pressure;BME280_temperature;BME280_humidity;BME280_pressure;Samples;Min_cycle;Max_cycle;Signal;HPM_P1;HPM_P2
2022/08/10 00:00:44;;;;;;;6.80;2.73;;;20.70;99.90;;;;;;5096823;28;20517;-57
2022/08/10 00:03:11;;;;;;;4.30;2.53;;;20.60;99.90;;;;;;5097120;28;20460;-57
2022/08/10 00:05:38;;;;;;;5.93;3.00;;;20.60;99.90;;;;;;5097222;28;20469;-57
2022/08/10 00:08:06;;;;;;;3.60;2.70;;;20.50;99.90;;;;;;5097040;28;20422;-58
2022/08/10 00:10:33;;;;;;;3.33;3.03;;;20.50;99.90;;;;;;5097197;28;20433;-58
2022/08/10 00:13:00;;;;;;;3.20;2.80;;;20.50;99.90;;;;;;5097701;28;20484;-57
2022/08/10 00:15:27;;;;;;;3.00;2.67;;;20.50;99.90;;;;;;5097475;28;20453;-54
2022/08/10 00:17:54;;;;;;;4.60;2.60;;;20.50;99.90;;;;;;5097425;28;20556;-51
2022/08/10 00:20:21;;;;;;;3.00;2.70;;;20.40;99.90;;;;;;5097312;28;20481;-52
2022/08/10 00:22:47;;;;;;;3.50;2.90;;;20.40;99.90;;;;;;5096874;28;20449;-58
2022/08/10 00:25:16;;;;;;;7.03;2.70;;;20.40;99.90;;;;;;5097182;28;20481;-58
2022/08/10 00:27:42;;;;;;;4.37;2.53;;;20.40;99.90;;;;;;5098477;28;20456;-58
2022/08/10 00:30:11;;;;;;;5.73;2.90;;;20.40;99.90;;;;;;5101041;28;20475;-60
2022/08/10 00:32:37;;;;;;;7.03;2.50;;;20.40;99.90;;;;;;5100638;28;20481;-59
2022/08/10 00:35:06;;;;;;;3.93;2.30;;;20.30;99.90;;;;;;5100822;28;20451;-57
2022/08/10 00:37:33;;;;;;;3.70;2.80;;;20.30;99.90;;;;;;5101187;28;20437;-56
2022/08/10 00:40:00;;;;;;;4.00;2.63;;;20.30;99.90;;;;;;5100924;28;20476;-49
2022/08/10 00:42:28;;;;;;;3.77;3.00;;;20.20;99.90;;;;;;5100647;28;20504;-49
2022/08/10 00:44:55;;;;;;;3.23;2.93;;;20.20;99.90;;;;;;5100415;28;20532;-55
2022/08/10 00:47:21;;;;;;;4.27;2.43;;;20.20;99.90;;;;;;5100780;28;20528;-57
2022/08/10 00:49:49;;;;;;;4.70;3.50;;;20.20;99.90;;;;;;5100957;28;20851;-54
2022/08/10 00:52:17;;;;;;;3.77;2.20;;;20.20;99.90;;;;;;5100982;28;20453;-55
2022/08/10 00:54:44;;;;;;;4.00;3.23;;;20.10;99.90;;;;;;5101065;28;20492;-57
2022/08/10 00:57:13;;;;;;;4.73;3.20;;;20.10;99.90;;;;;;5100653;28;20468;-57
2022/08/10 00:59:41;;;;;;;3.03;2.57;;;20.10;99.90;;;;;;5100654;28;20526;-57
2022/08/10 01:02:08;;;;;;;3.80;2.30;;;20.10;99.90;;;;;;5100361;28;20536;-57
2022/08/10 01:04:35;;;;;;;5.60;3.00;;;20.10;99.90;;;;;;5100190;28;20446;-55
2022/08/10 01:07:25;;;;;;;8.73;2.70;;;20.10;99.90;;;;;;5100259;28;20552;-54
2022/08/10 01:10:02;;;;;;;2.77;2.23;;;20.00;99.90;;;;;;5100750;28;20426;-57
2022/08/10 01:12:38;;;;;;;3.23;2.53;;;20.00;99.90;;;;;;5099761;28;20461;-54
2022/08/10 01:15:11;;;;;;;3.77;2.33;;;20.00;99.90;;;;;;5099839;28;20463;-58
2022/08/10 01:17:48;;;;;;;7.20;2.93;;;20.00;99.90;;;;;;5101769;28;20433;-58
2022/08/10 01:20:23;;;;;;;7.10;3.40;;;20.00;99.90;;;;;;5100414;28;20528;-58
2022/08/10 01:23:15;;;;;;;4.13;3.50;;;20.00;99.90;;;;;;5099963;28;20477;-55
2022/08/10 01:25:54;;;;;;;5.70;2.30;;;19.90;99.90;;;;;;5099636;28;20472;-57
2022/08/10 01:28:36;;;;;;;6.50;3.20;;;19.90;99.90;;;;;;5100196;28;20482;-57
2022/08/10 01:31:07;;;;;;;6.77;2.70;;;19.90;99.90;;;;;;5099933;28;20465;-57
2022/08/10 01:33:39;;;;;;;4.97;3.20;;;19.80;99.90;;;;;;5099377;28;20438;-58
2022/08/10 01:36:11;;;;;;;6.87;2.97;;;19.80;99.90;;;;;;5099493;28;20457;-55
2022/08/10 01:38:41;;;;;;;4.00;2.80;;;19.70;99.90;;;;;;5098982;28;20448;-58
2022/08/10 01:41:11;;;;;;;7.50;3.47;;;19.70;99.90;;;;;;5099778;28;20488;-57
2022/08/10 01:43:42;;;;;;;6.93;3.10;;;19.60;99.90;;;;;;5099346;28;20537;-57
2022/08/10 01:46:17;;;;;;;3.47;2.80;;;19.60;99.90;;;;;;5099790;28;20742;-58
2022/08/10 01:48:53;;;;;;;3.97;3.33;;;19.50;99.90;;;;;;5099383;28;21043;-58
2022/08/10 01:51:24;;;;;;;4.20;3.30;;;19.50;99.90;;;;;;5100216;28;20424;-57
2022/08/10 01:53:57;;;;;;;4.43;2.83;;;19.40;99.90;;;;;;5099740;28;20497;-55
2022/08/10 01:56:28;;;;;;;3.50;3.20;;;19.40;99.90;;;;;;5099404;28;20537;-57
2022/08/10 01:58:57;;;;;;;4.40;3.30;;;19.40;99.90;;;;;;5099521;28;20426;-57
2022/08/10 02:01:29;;;;;;;7.50;2.90;;;19.40;99.90;;;;;;5099474;28;20580;-54
2022/08/10 02:04:01;;;;;;;3.10;2.60;;;19.30;99.90;;;;;;5099802;28;20457;-56
2022/08/10 02:06:30;;;;;;;4.70;2.90;;;19.30;99.90;;;;;;5099806;28;20506;-56
2022/08/10 02:08:59;;;;;;;4.27;3.10;;;19.20;99.90;;;;;;5099173;28;20445;-55
2022/08/10 02:11:27;;;;;;;4.43;3.27;;;19.20;99.90;;;;;;5099278;28;20450;-53
2022/08/10 02:13:56;;;;;;;2.80;2.53;;;19.20;99.90;;;;;;5099720;28;20473;-56
2022/08/10 02:16:26;;;;;;;3.00;2.73;;;19.20;99.90;;;;;;5099371;28;20441;-55
2022/08/10 02:18:56;;;;;;;3.20;2.50;;;19.20;99.90;;;;;;5099159;28;20451;-54
2022/08/10 02:21:29;;;;;;;3.83;2.80;;;19.20;99.90;;;;;;5098911;28;20480;-57
2022/08/10 02:23:59;;;;;;;5.50;2.70;;;19.10;99.90;;;;;;5098910;28;20429;-58
2022/08/10 02:26:27;;;;;;;3.90;2.77;;;19.20;99.90;;;;;;5099011;28;20472;-61
2022/08/10 02:28:58;;;;;;;10.83;4.70;;;19.10;99.90;;;;;;5099129;28;20520;-55
2022/08/10 02:31:28;;;;;;;5.83;3.27;;;19.10;99.90;;;;;;5099186;28;20552;-55
2022/08/10 02:33:55;;;;;;;7.10;3.17;;;19.10;99.90;;;;;;5098871;28;20446;-57
2022/08/10 02:36:27;;;;;;;4.13;3.30;;;19.00;99.90;;;;;;5098839;28;20496;-60
2022/08/10 02:39:00;;;;;;;5.13;3.80;;;19.00;99.90;;;;;;5099370;28;20433;-58
2022/08/10 02:41:32;;;;;;;8.10;3.13;;;19.00;99.90;;;;;;5099469;28;20465;-55
2022/08/10 02:44:05;;;;;;;7.77;3.10;;;19.00;99.90;;;;;;5099358;28;20484;-58
2022/08/10 02:46:39;;;;;;;9.77;3.77;;;18.90;99.90;;;;;;5099595;28;20445;-57
2022/08/10 02:49:10;;;;;;;8.70;3.60;;;18.90;99.90;;;;;;5099150;28;20460;-54
2022/08/10 02:51:45;;;;;;;4.53;3.33;;;18.90;99.90;;;;;;5097683;28;20432;-58
2022/08/10 02:54:20;;;;;;;7.30;3.53;;;18.90;99.90;;;;;;5098437;28;20550;-53
2022/08/10 02:56:54;;;;;;;7.80;3.27;;;18.90;99.90;;;;;;5098750;28;20475;-51
2022/08/10 02:59:25;;;;;;;3.40;2.73;;;18.80;99.90;;;;;;5099002;28;20418;-55
2022/08/10 03:01:59;;;;;;;3.43;2.70;;;18.80;99.90;;;;;;5098803;28;20600;-53
2022/08/10 03:04:34;;;;;;;6.80;2.57;;;18.80;99.90;;;;;;5098464;28;20430;-56
2022/08/10 03:07:04;;;;;;;4.53;3.23;;;18.70;99.90;;;;;;5099675;28;20440;-57
2022/08/10 03:09:38;;;;;;;4.40;3.10;;;18.70;99.90;;;;;;5099486;28;20425;-57
2022/08/10 03:12:07;;;;;;;3.90;3.23;;;18.70;99.90;;;;;;5099037;28;20862;-55
2022/08/10 03:14:37;;;;;;;3.30;3.00;;;18.70;99.90;;;;;;5097218;28;20491;-57
2022/08/10 03:17:07;;;;;;;4.57;2.97;;;18.70;99.90;;;;;;5095193;28;20747;-58
2022/08/10 03:19:36;;;;;;;5.53;3.50;;;18.60;99.90;;;;;;5095168;28;20476;-53
2022/08/10 03:22:04;;;;;;;4.10;3.40;;;18.60;99.90;;;;;;5094879;28;20477;-57
2022/08/10 03:24:32;;;;;;;5.20;3.60;;;18.60;99.90;;;;;;5094753;28;20477;-59
2022/08/10 03:26:59;;;;;;;4.93;3.80;;;18.60;99.90;;;;;;5094589;28;20474;-57
2022/08/10 03:29:27;;;;;;;5.00;3.30;;;18.60;99.90;;;;;;5095481;28;20455;-56
2022/08/10 03:31:56;;;;;;;5.30;3.77;;;18.60;99.90;;;;;;5095359;28;20438;-59
2022/08/10 03:34:25;;;;;;;4.80;3.13;;;18.70;99.90;;;;;;5095175;28;20446;-58
2022/08/10 03:36:52;;;;;;;4.53;3.60;;;18.70;99.90;;;;;;5094624;28;20481;-58
2022/08/10 03:39:19;;;;;;;6.70;2.90;;;18.70;99.90;;;;;;5094460;28;20461;-57
2022/08/10 03:41:49;;;;;;;5.20;3.10;;;18.70;99.90;;;;;;5094376;28;20491;-56
2022/08/10 03:44:20;;;;;;;4.10;2.80;;;18.70;99.90;;;;;;5094717;28;20883;-55
2022/08/10 03:46:48;;;;;;;4.00;3.20;;;18.70;99.90;;;;;;5094871;28;20532;-57
2022/08/10 03:49:19;;;;;;;4.50;3.20;;;18.70;99.90;;;;;;5094710;28;20446;-57
2022/08/10 03:51:50;;;;;;;3.87;2.90;;;18.70;99.90;;;;;;5094675;28;20522;-57
2022/08/10 03:54:17;;;;;;;4.80;3.33;;;18.70;99.90;;;;;;5094693;28;20445;-54
2022/08/10 03:56:45;;;;;;;3.80;3.50;;;18.70;99.90;;;;;;5094513;28;20473;-57
2022/08/10 03:59:14;;;;;;;4.00;3.40;;;18.70;99.90;;;;;;5094421;28;20444;-57
2022/08/10 04:01:42;;;;;;;5.40;3.53;;;18.70;99.90;;;;;;5096048;28;20485;-57
2022/08/10 04:04:09;;;;;;;3.83;3.03;;;18.70;99.90;;;;;;5098411;28;20449;-55
2022/08/10 04:06:36;;;;;;;5.13;2.43;;;18.70;99.90;;;;;;5098656;28;20449;-56
2022/08/10 04:09:05;;;;;;;5.97;3.30;;;18.70;99.90;;;;;;5098675;28;20469;-56
2022/08/10 04:11:33;;;;;;;4.47;3.60;;;18.70;99.90;;;;;;5098477;28;20552;-55
2022/08/10 04:14:00;;;;;;;5.33;3.80;;;18.70;99.90;;;;;;5098363;28;20421;-55
2022/08/10 04:16:26;;;;;;;4.70;3.77;;;18.70;99.90;;;;;;5098518;28;20467;-54
2022/08/10 04:18:53;;;;;;;5.83;4.20;;;18.80;99.90;;;;;;5098361;28;20445;-58
2022/08/10 04:21:26;;;;;;;7.53;4.13;;;18.80;99.90;;;;;;5098738;28;20480;-56
2022/08/10 04:23:55;;;;;;;4.10;3.47;;;18.80;99.90;;;;;;5097909;28;20452;-58
2022/08/10 04:26:24;;;;;;;7.13;3.53;;;18.80;99.90;;;;;;5098235;28;20756;-53
2022/08/10 04:28:51;;;;;;;4.43;3.40;;;18.80;99.90;;;;;;5097972;28;20459;-58
2022/08/10 04:31:20;;;;;;;4.77;3.03;;;18.70;99.90;;;;;;5098296;28;20518;-59
2022/08/10 04:33:50;;;;;;;5.53;3.77;;;18.80;99.90;;;;;;5098297;28;21144;-63
2022/08/10 04:36:18;;;;;;;4.60;3.43;;;18.80;99.90;;;;;;5097991;28;20453;-58
2022/08/10 04:38:48;;;;;;;6.23;3.30;;;18.80;99.90;;;;;;5098012;28;20445;-58
2022/08/10 04:41:16;;;;;;;8.43;4.20;;;18.80;99.90;;;;;;5098308;28;20477;-58
2022/08/10 04:43:44;;;;;;;4.17;3.77;;;18.90;99.90;;;;;;5097696;28;20448;-58
2022/08/10 04:46:11;;;;;;;7.60;4.40;;;18.90;99.90;;;;;;5097753;28;20477;-57
2022/08/10 04:48:38;;;;;;;4.33;2.90;;;19.00;99.90;;;;;;5097765;28;20441;-53
2022/08/10 04:51:05;;;;;;;7.60;3.63;;;19.00;99.90;;;;;;5098326;28;20464;-59
2022/08/10 04:53:36;;;;;;;6.70;3.83;;;19.00;99.90;;;;;;5097985;28;20445;-61
2022/08/10 04:56:03;;;;;;;14.40;3.43;;;19.00;99.90;;;;;;5097549;28;20449;-56
2022/08/10 04:58:30;;;;;;;5.60;3.60;;;19.00;99.90;;;;;;5097664;28;20475;-58
2022/08/10 05:00:58;;;;;;;8.07;4.00;;;19.10;99.90;;;;;;5097299;28;20452;-54
2022/08/10 05:03:25;;;;;;;4.20;3.50;;;19.10;99.90;;;;;;5097125;28;20457;-57
2022/08/10 05:05:52;;;;;;;5.33;3.70;;;19.10;99.90;;;;;;5097508;28;20422;-55
2022/08/10 05:08:19;;;;;;;5.33;3.67;;;19.10;99.90;;;;;;5097203;28;20448;-56
2022/08/10 05:10:46;;;;;;;6.30;4.17;;;19.10;99.90;;;;;;5096815;28;20483;-57
2022/08/10 05:13:12;;;;;;;3.97;3.50;;;19.20;99.90;;;;;;5096492;28;20528;-52
2022/08/10 05:15:42;;;;;;;5.23;4.60;;;19.20;99.90;;;;;;5096995;28;20543;-52
2022/08/10 05:18:10;;;;;;;6.10;3.67;;;19.20;99.90;;;;;;5096750;28;20437;-57
2022/08/10 05:20:38;;;;;;;6.10;3.97;;;19.20;99.90;;;;;;5097245;28;20488;-54
2022/08/10 05:23:05;;;;;;;4.10;3.70;;;19.20;99.90;;;;;;5096888;28;20797;-55
2022/08/10 05:25:31;;;;;;;7.67;3.73;;;19.20;99.90;;;;;;5097193;28;20445;-57
2022/08/10 05:27:58;;;;;;;7.00;3.90;;;19.20;99.90;;;;;;5096967;28;20466;-51
2022/08/10 05:30:25;;;;;;;5.03;3.70;;;19.20;99.90;;;;;;5096852;28;20441;-57
2022/08/10 05:32:52;;;;;;;4.60;3.50;;;19.20;99.90;;;;;;5096349;28;20434;-58
2022/08/10 05:35:20;;;;;;;4.63;3.53;;;19.30;99.90;;;;;;5097290;28;20478;-61
2022/08/10 05:37:47;;;;;;;5.90;4.30;;;19.30;99.90;;;;;;5098115;28;20425;-51
2022/08/10 05:40:14;;;;;;;4.70;4.00;;;19.30;99.90;;;;;;5097689;28;20469;-54
2022/08/10 05:42:42;;;;;;;6.17;3.70;;;19.40;99.90;;;;;;5096745;28;20477;-58
2022/08/10 05:45:19;;;;;;;5.50;4.50;;;19.40;99.90;;;;;;5096465;28;20504;-57
2022/08/10 05:47:48;;;;;;;7.43;4.23;;;19.40;99.90;;;;;;5100753;28;20422;-57
2022/08/10 05:50:16;;;;;;;5.70;3.63;;;19.40;99.90;;;;;;5098308;28;21053;-55
2022/08/10 05:52:44;;;;;;;6.60;4.67;;;19.40;99.90;;;;;;5099102;28;20465;-56
2022/08/10 05:55:12;;;;;;;7.20;4.27;;;19.40;99.90;;;;;;5099835;28;20468;-59
2022/08/10 05:57:39;;;;;;;5.37;3.23;;;19.40;99.90;;;;;;5098486;28;20450;-58
2022/08/10 06:00:09;;;;;;;6.53;4.00;;;19.50;99.90;;;;;;5097821;28;20458;-58
2022/08/10 06:02:38;;;;;;;6.57;4.00;;;19.50;99.90;;;;;;5096882;28;20539;-58
2022/08/10 06:05:08;;;;;;;5.10;3.33;;;19.60;99.90;;;;;;5097638;28;20473;-59
2022/08/10 06:07:39;;;;;;;8.40;4.20;;;19.60;99.90;;;;;;5097271;28;20466;-57
2022/08/10 06:10:11;;;;;;;5.37;3.83;;;19.60;99.90;;;;;;5097339;28;20551;-58
2022/08/10 06:12:39;;;;;;;5.07;4.40;;;19.70;99.90;;;;;;5096228;28;20430;-58
2022/08/10 06:15:07;;;;;;;5.50;4.67;;;19.80;99.90;;;;;;5096079;28;20461;-50
2022/08/10 06:17:35;;;;;;;4.23;3.80;;;19.80;99.90;;;;;;5092473;28;20465;-57
2022/08/10 06:20:02;;;;;;;4.70;3.50;;;19.80;99.90;;;;;;5093281;28;20441;-56
2022/08/10 06:22:31;;;;;;;3.77;3.30;;;19.90;99.90;;;;;;5093193;28;20485;-55
2022/08/10 06:25:00;;;;;;;4.83;3.93;;;20.00;99.90;;;;;;5095430;28;20458;-54
2022/08/10 06:27:28;;;;;;;6.70;3.97;;;20.10;99.90;;;;;;5097517;28;20442;-57
2022/08/10 06:29:56;;;;;;;8.33;3.67;;;20.10;99.90;;;;;;5098912;28;20442;-57
2022/08/10 06:32:27;;;;;;;6.20;3.20;;;20.20;99.90;;;;;;5099450;28;20482;-57
2022/08/10 06:34:56;;;;;;;4.40;3.83;;;20.30;99.90;;;;;;5094816;28;20470;-54
2022/08/10 06:37:26;;;;;;;7.93;3.80;;;20.40;99.90;;;;;;5095245;28;20458;-54
2022/08/10 06:39:53;;;;;;;6.80;4.27;;;20.50;99.90;;;;;;5096300;28;20473;-56
2022/08/10 06:42:27;;;;;;;4.30;3.10;;;20.50;99.90;;;;;;5096160;28;20528;-59
2022/08/10 06:45:00;;;;;;;5.87;4.03;;;20.70;99.90;;;;;;5094206;28;20798;-55
2022/08/10 06:47:33;;;;;;;4.10;3.17;;;20.80;99.90;;;;;;5099815;28;20422;-56
2022/08/10 06:50:06;;;;;;;6.73;3.80;;;20.90;99.90;;;;;;5095446;28;20452;-58
2022/08/10 06:52:34;;;;;;;8.03;4.63;;;20.90;99.90;;;;;;5093014;28;20442;-60
2022/08/10 06:55:02;;;;;;;7.23;3.90;;;21.00;99.90;;;;;;5093950;28;20434;-53
2022/08/10 06:57:34;;;;;;;4.77;3.70;;;21.10;99.90;;;;;;5093733;28;20462;-51
2022/08/10 07:00:06;;;;;;;7.90;4.23;;;21.20;99.90;;;;;;5093602;28;20442;-51
2022/08/10 07:02:41;;;;;;;7.40;3.67;;;21.30;99.90;;;;;;5094860;28;21034;-54
2022/08/10 07:05:11;;;;;;;5.03;3.33;;;21.30;99.90;;;;;;5092037;28;20495;-58
2022/08/10 07:07:40;;;;;;;8.40;3.43;;;21.40;99.90;;;;;;5095140;28;20516;-56
2022/08/10 07:10:09;;;;;;;8.90;3.33;;;21.60;99.90;;;;;;5095057;28;20789;-54
2022/08/10 07:12:38;;;;;;;4.60;3.13;;;21.60;99.90;;;;;;5095474;28;20434;-51
2022/08/10 07:15:08;;;;;;;4.80;3.57;;;21.70;99.90;;;;;;5094776;28;20488;-53
2022/08/10 07:17:37;;;;;;;8.67;4.13;;;21.80;99.90;;;;;;5094790;28;20503;-54
2022/08/10 07:20:07;;;;;;;11.20;4.13;;;21.90;99.90;;;;;;5095392;28;20934;-55
2022/08/10 07:22:37;;;;;;;5.90;3.10;;;22.00;99.90;;;;;;5094731;28;20564;-47
2022/08/10 07:25:06;;;;;;;5.70;3.83;;;22.10;99.90;;;;;;5094802;28;20560;-53
2022/08/10 07:27:34;;;;;;;10.90;3.37;;;22.20;99.90;;;;;;5090906;28;20894;-49
2022/08/10 07:30:02;;;;;;;3.73;3.37;;;22.30;99.90;;;;;;5098673;28;20441;-54
2022/08/10 07:32:33;;;;;;;6.70;3.77;;;22.40;99.90;;;;;;5099113;28;20437;-54
2022/08/10 07:35:01;;;;;;;5.80;3.73;;;22.50;99.90;;;;;;5097425;28;20432;-49
2022/08/10 07:37:30;;;;;;;4.43;2.90;;;22.50;99.90;;;;;;5100033;28;20481;-54
2022/08/10 07:39:58;;;;;;;11.43;3.90;;;22.60;99.90;;;;;;5100913;28;20492;-54
2022/08/10 07:42:27;;;;;;;9.33;3.70;;;22.80;99.90;;;;;;5099653;28;20485;-56
2022/08/10 07:44:53;;;;;;;6.83;3.60;;;22.90;99.90;;;;;;5095555;28;20437;-50
2022/08/10 07:47:27;;;;;;;7.70;3.40;;;23.10;99.90;;;;;;5094836;28;20454;-53
2022/08/10 07:49:59;;;;;;;6.50;3.93;;;23.20;99.90;;;;;;5094870;28;20444;-54
2022/08/10 07:52:28;;;;;;;11.77;3.60;;;23.50;99.90;;;;;;5094795;28;20875;-56
2022/08/10 07:54:56;;;;;;;7.97;3.30;;;24.10;99.90;;;;;;5098636;28;20463;-49
2022/08/10 07:57:27;;;;;;;6.00;3.43;;;25.50;99.90;;;;;;5098970;28;20455;-53
2022/08/10 07:59:57;;;;;;;3.73;2.97;;;27.60;99.90;;;;;;5097753;28;20473;-56
2022/08/10 08:02:28;;;;;;;4.50;3.00;;;29.90;99.00;;;;;;5096435;28;20762;-56
2022/08/10 08:04:58;;;;;;;4.00;3.60;;;32.10;87.90;;;;;;5094299;28;20519;-53
2022/08/10 08:07:26;;;;;;;6.70;3.63;;;33.90;72.90;;;;;;5094842;28;20449;-56
2022/08/10 08:09:55;;;;;;;9.83;4.33;;;35.40;64.20;;;;;;5094597;28;20452;-57
2022/08/10 08:12:23;;;;;;;9.07;2.93;;;36.20;57.60;;;;;;5094184;28;20527;-52
2022/08/10 08:14:52;;;;;;;3.90;3.40;;;36.00;54.90;;;;;;5094320;28;20449;-52
2022/08/10 08:17:21;;;;;;;4.20;3.43;;;35.60;54.20;;;;;;5094557;28;20480;-58
2022/08/10 08:19:50;;;;;;;4.87;3.43;;;35.70;54.20;;;;;;5094288;28;20442;-54
2022/08/10 08:22:19;;;;;;;4.30;3.50;;;36.30;52.50;;;;;;5093902;28;20485;-59
2022/08/10 08:24:47;;;;;;;4.23;2.63;;;36.90;50.10;;;;;;5094334;28;20456;-59
2022/08/10 08:27:15;;;;;;;7.20;3.27;;;37.40;49.00;;;;;;5094214;28;20451;-56
2022/08/10 08:29:45;;;;;;;4.10;2.87;;;37.80;47.10;;;;;;5093886;28;20457;-56
2022/08/10 08:32:13;;;;;;;6.40;3.07;;;38.20;44.60;;;;;;5093927;28;20442;-56
2022/08/10 08:34:43;;;;;;;3.83;3.00;;;38.70;43.90;;;;;;5094015;28;20469;-53
2022/08/10 08:37:14;;;;;;;4.57;3.07;;;38.90;43.20;;;;;;5093948;28;20812;-55
2022/08/10 08:39:43;;;;;;;3.70;2.80;;;39.20;42.60;;;;;;5094497;28;20483;-55
2022/08/10 08:42:54;;;;;;;3.60;3.10;;;39.20;41.80;;;;;;5093784;28;20450;-56
2022/08/10 08:45:28;;;;;;;4.20;2.70;;;39.20;41.80;;;;;;5093889;28;20955;-51
2022/08/10 08:48:29;;;;;;;3.10;2.70;;;39.10;41.00;;;;;;5094407;28;20437;-55
2022/08/10 08:51:12;;;;;;;2.87;2.43;;;39.20;41.10;;;;;;5097667;28;20477;-55
2022/08/10 08:53:51;;;;;;;3.70;2.80;;;39.10;40.60;;;;;;5097743;28;20429;-51
2022/08/10 08:56:28;;;;;;;3.20;2.90;;;39.10;40.00;;;;;;5098077;28;20469;-53
2022/08/10 08:59:08;;;;;;;4.33;2.63;;;39.10;39.70;;;;;;5097357;28;20854;-52
2022/08/10 09:01:58;;;;;;;3.47;3.13;;;39.30;40.60;;;;;;5097329;28;20437;-53
2022/08/10 09:04:42;;;;;;;2.50;2.30;;;39.50;39.20;;;;;;5086890;28;20485;-50
2022/08/10 09:07:29;;;;;;;3.83;2.60;;;39.60;38.60;;;;;;5097497;28;20437;-53
2022/08/10 09:10:03;;;;;;;3.97;2.70;;;39.60;38.80;;;;;;5097487;28;20426;-53
2022/08/10 09:12:47;;;;;;;2.10;1.90;;;39.40;38.60;;;;;;5097673;28;20425;-54
2022/08/10 09:15:23;;;;;;;4.20;2.50;;;39.30;37.90;;;;;;5097492;28;20871;-55
2022/08/10 09:17:59;;;;;;;3.00;2.70;;;39.30;38.10;;;;;;5097485;28;20432;-57
2022/08/10 09:20:34;;;;;;;2.87;2.57;;;39.20;37.30;;;;;;5097328;28;20444;-51
2022/08/10 09:23:09;;;;;;;4.40;2.43;;;39.20;37.10;;;;;;5097112;28;20525;-50
2022/08/10 09:25:38;;;;;;;5.60;2.03;;;39.20;36.80;;;;;;5097435;28;20464;-54
2022/08/10 09:28:08;;;;;;;2.83;2.30;;;39.30;37.10;;;;;;5097544;28;20473;-54
2022/08/10 09:30:43;;;;;;;3.17;2.03;;;39.20;35.90;;;;;;5096991;28;20466;-51
2022/08/10 09:33:14;;;;;;;2.23;1.90;;;39.00;36.20;;;;;;5096954;28;20433;-55
2022/08/10 09:35:52;;;;;;;2.57;2.03;;;39.00;36.60;;;;;;5096795;28;20556;-49
2022/08/10 09:38:31;;;;;;;5.40;2.00;;;38.90;35.30;;;;;;5096934;28;20468;-52
2022/08/10 09:41:09;;;;;;;2.67;2.40;;;39.00;34.80;;;;;;5096928;28;20433;-52
2022/08/10 09:43:50;;;;;;;7.17;2.07;;;38.90;34.50;;;;;;5098877;28;20560;-54
2022/08/10 09:46:32;;;;;;;1.80;1.70;;;38.80;34.30;;;;;;5101516;28;20528;-51
2022/08/10 09:49:19;;;;;;;2.70;1.90;;;38.70;32.90;;;;;;5096546;28;20473;-55
2022/08/10 09:51:59;;;;;;;2.10;1.90;;;38.70;34.40;;;;;;5096343;28;20930;-51
2022/08/10 09:54:47;;;;;;;2.03;1.83;;;38.80;34.10;;;;;;5096433;28;20465;-56
2022/08/10 09:57:20;;;;;;;2.33;1.77;;;38.60;33.00;;;;;;5096358;28;20881;-54
2022/08/10 09:59:57;;;;;;;2.53;2.17;;;38.30;33.90;;;;;;5095870;28;20915;-52
2022/08/10 10:02:45;;;;;;;2.77;2.13;;;38.20;33.80;;;;;;5096150;28;20476;-51
2022/08/10 10:05:24;;;;;;;3.27;1.93;;;38.30;34.20;;;;;;5096120;28;20437;-53
2022/08/10 10:08:01;;;;;;;2.80;2.13;;;38.20;33.70;;;;;;5096407;28;20456;-54
2022/08/10 10:10:38;;;;;;;2.80;2.17;;;38.30;33.50;;;;;;5096434;28;20444;-52
2022/08/10 10:13:10;;;;;;;3.10;1.60;;;38.20;33.80;;;;;;5095535;28;20564;-55
2022/08/10 10:15:48;;;;;;;4.13;2.10;;;38.20;32.80;;;;;;5095621;28;20748;-54
2022/08/10 10:18:23;;;;;;;1.87;1.67;;;38.10;33.30;;;;;;5095631;28;20473;-52
2022/08/10 10:21:00;;;;;;;2.37;1.90;;;38.10;33.10;;;;;;5094904;28;20441;-55
2022/08/10 10:23:51;;;;;;;3.17;2.10;;;38.20;32.70;;;;;;5095825;28;20466;-47
2022/08/10 10:26:24;;;;;;;3.57;2.27;;;38.20;33.00;;;;;;5095898;28;20765;-56
2022/08/10 10:29:14;;;;;;;3.27;2.30;;;38.10;33.50;;;;;;5095637;28;20560;-56
2022/08/10 10:31:54;;;;;;;3.30;2.10;;;38.10;33.80;;;;;;5095779;28;20574;-56
2022/08/10 10:34:30;;;;;;;2.77;2.10;;;38.00;32.80;;;;;;5095680;28;20422;-55
2022/08/10 10:37:00;;;;;;;4.70;2.07;;;37.60;33.40;;;;;;5095208;28;20459;-56
2022/08/10 10:39:28;;;;;;;1.43;1.30;;;37.50;34.00;;;;;;5095704;28;20442;-56
2022/08/10 10:42:06;;;;;;;1.93;1.73;;;37.30;32.60;;;;;;5095513;28;20472;-54
2022/08/10 10:44:55;;;;;;;3.20;2.10;;;36.90;33.40;;;;;;5095448;28;20465;-55
2022/08/10 10:47:46;;;;;;;2.97;2.00;;;36.50;33.00;;;;;;5095222;28;20441;-49
2022/08/10 10:50:19;;;;;;;7.13;2.17;;;36.10;34.40;;;;;;5095452;28;20421;-51
2022/08/10 10:52:56;;;;;;;3.97;1.90;;;35.90;34.60;;;;;;5094821;28;20430;-54
2022/08/10 10:55:34;;;;;;;2.37;1.63;;;35.70;35.00;;;;;;5094986;28;20933;-51
2022/08/10 10:58:07;;;;;;;2.33;1.93;;;35.30;33.90;;;;;;5095522;28;20502;-48
2022/08/10 11:00:41;;;;;;;4.73;1.60;;;34.80;34.20;;;;;;5094875;28;20945;-55
2022/08/10 11:03:23;;;;;;;3.20;1.67;;;34.50;35.20;;;;;;5095122;28;20473;-53
2022/08/10 11:06:07;;;;;;;2.30;1.87;;;34.30;36.90;;;;;;5094982;28;20858;-49
2022/08/10 11:08:37;;;;;;;6.43;2.50;;;34.00;36.70;;;;;;5095037;28;20425;-53
2022/08/10 11:11:10;;;;;;;2.00;1.50;;;33.80;37.20;;;;;;5094179;28;20798;-54
2022/08/10 11:13:43;;;;;;;3.07;2.33;;;33.40;38.10;;;;;;5095080;28;20461;-50
2022/08/10 11:16:17;;;;;;;2.53;1.90;;;33.30;38.80;;;;;;5095111;28;20449;-55
2022/08/10 11:19:03;;;;;;;3.23;2.07;;;33.30;38.30;;;;;;5094916;28;20469;-54
2022/08/10 11:22:07;;;;;;;2.60;1.83;;;33.20;37.80;;;;;;5094985;28;20448;-50
2022/08/10 11:24:43;;;;;;;3.10;1.77;;;33.00;38.40;;;;;;5094787;28;20495;-54
2022/08/10 11:27:17;;;;;;;1.60;1.50;;;32.80;38.60;;;;;;5095032;28;20441;-52
2022/08/10 11:29:51;;;;;;;3.10;2.20;;;32.70;38.50;;;;;;5095240;28;20514;-54
2022/08/10 11:32:23;;;;;;;2.60;2.10;;;32.60;38.80;;;;;;5094424;28;20428;-53
2022/08/10 11:35:00;;;;;;;1.70;1.50;;;32.60;38.90;;;;;;5094744;28;20441;-54
2022/08/10 11:37:35;;;;;;;4.13;2.40;;;32.40;38.00;;;;;;5094455;28;20477;-55
2022/08/10 11:40:09;;;;;;;2.40;1.90;;;32.40;38.00;;;;;;5094773;28;20433;-52
2022/08/10 11:42:41;;;;;;;3.10;2.00;;;32.20;37.80;;;;;;5094475;28;20426;-53
2022/08/10 11:45:13;;;;;;;4.23;2.30;;;32.00;39.10;;;;;;5094574;28;20968;-53
2022/08/10 11:47:46;;;;;;;3.03;2.10;;;32.00;38.70;;;;;;5094715;28;20430;-54
2022/08/10 11:50:23;;;;;;;3.20;2.07;;;31.90;38.90;;;;;;5094401;28;20937;-54
2022/08/10 11:52:59;;;;;;;3.50;1.83;;;31.80;39.00;;;;;;5094420;28;20418;-51
2022/08/10 11:55:30;;;;;;;2.40;2.20;;;31.50;39.10;;;;;;5094607;28;20480;-52
2022/08/10 11:58:00;;;;;;;2.17;1.90;;;31.40;39.20;;;;;;5094690;28;20435;-48
2022/08/10 12:00:30;;;;;;;4.80;2.30;;;31.30;39.90;;;;;;5094764;28;20445;-54
2022/08/10 12:03:01;;;;;;;2.97;2.00;;;31.30;40.30;;;;;;5094715;28;20530;-47
2022/08/10 12:05:34;;;;;;;2.60;2.20;;;31.20;40.00;;;;;;5094517;28;20452;-55
2022/08/10 12:08:02;;;;;;;2.23;1.80;;;31.20;40.00;;;;;;5094202;28;20473;-51
2022/08/10 12:10:30;;;;;;;2.90;1.70;;;31.10;39.30;;;;;;5094512;28;20456;-54
2022/08/10 12:13:05;;;;;;;4.07;2.07;;;30.90;39.00;;;;;;5094267;28;20437;-52
2022/08/10 12:15:38;;;;;;;2.37;2.13;;;30.60;40.40;;;;;;5076482;28;20543;-54
2022/08/10 12:18:13;;;;;;;6.00;2.33;;;30.50;39.90;;;;;;5094912;28;20425;-55
2022/08/10 12:20:46;;;;;;;2.70;2.50;;;30.50;40.20;;;;;;5094612;28;20465;-56
2022/08/10 12:23:19;;;;;;;5.10;4.50;;;30.60;39.90;;;;;;5096485;28;20422;-49
2022/08/10 12:25:58;;;;;;;2.53;1.97;;;30.60;40.50;;;;;;5098754;28;20481;-52
2022/08/10 12:28:31;;;;;;;3.43;1.97;;;30.60;39.50;;;;;;5098755;28;20868;-55
2022/08/10 12:31:01;;;;;;;2.70;2.10;;;30.50;39.80;;;;;;5097898;28;20778;-51
2022/08/10 12:33:34;;;;;;;2.70;1.87;;;30.40;40.20;;;;;;5097837;28;20890;-58
2022/08/10 12:36:09;;;;;;;4.47;3.27;;;30.40;40.20;;;;;;5097821;28;20916;-56
2022/08/10 12:38:39;;;;;;;4.43;3.03;;;30.50;41.30;;;;;;5098510;28;20513;-52
2022/08/10 12:41:16;;;;;;;6.00;5.03;;;30.60;40.30;;;;;;5098328;28;20454;-51
2022/08/10 12:43:51;;;;;;;4.17;2.90;;;30.50;40.50;;;;;;5098060;28;20587;-58
2022/08/10 12:46:26;;;;;;;3.63;1.87;;;30.50;40.50;;;;;;5098388;28;20532;-57
2022/08/10 12:49:03;;;;;;;4.10;2.60;;;30.50;40.00;;;;;;5097748;28;20452;-49
2022/08/10 12:51:34;;;;;;;5.33;4.30;;;30.50;40.60;;;;;;5097961;28;20428;-52
2022/08/10 12:54:09;;;;;;;18.37;13.20;;;30.50;41.20;;;;;;5097830;28;20433;-57
2022/08/10 12:56:38;;;;;;;6.60;4.30;;;30.50;40.80;;;;;;5098088;28;20519;-50
2022/08/10 12:59:06;;;;;;;3.40;2.83;;;30.50;41.00;;;;;;5097483;28;20449;-55
2022/08/10 13:01:35;;;;;;;5.00;3.27;;;30.50;40.30;;;;;;5097538;28;20510;-53
2022/08/10 13:04:07;;;;;;;4.50;2.73;;;30.60;40.60;;;;;;5097708;28;20497;-62
2022/08/10 13:06:40;;;;;;;3.43;2.10;;;30.60;40.50;;;;;;5097613;28;20549;-56
2022/08/10 13:09:11;;;;;;;3.40;2.50;;;30.60;39.40;;;;;;5097450;28;20473;-55